Flight Track Log - Related Links

Times and Time Zones

All times are in EDT time to prevent confusion due to time zone crossing. See the N21459 flight status page for this flight to view local times or setup timezone preferences in your user account.

Time Position Orientation Groundspeed Altitude Reporting Facility
EDT Latitude Longitude Course Direction KTS MPH feet Rate Location/Type
Wed 04:26:31 PM 42.9011 -83.7181 215° Southwest 103 119 3,400  Level Cleveland Center
Wed 04:27:32 PM 42.8800 -83.7311 204° Southwest 91 105 3,900 295 Climbing Cleveland Center
Wed 04:28:33 PM 42.8483 -83.7381 189° South 111 128 4,000 49 Climbing Cleveland Center
Wed 04:29:00 PM 42.8669 -83.6370 127° Southeast  Level Estimated
Wed 04:29:34 PM 42.8175 -83.7308 170° South 124 143 4,000  Level Cleveland Center
Wed 04:30:00 PM 42.8470 -83.6278 161° South  Level FlightAware Approximate
Wed 04:30:36 PM 42.7864 -83.7150 160° South 116 133 4,000  Level Cleveland Center
Wed 04:31:37 PM 42.7578 -83.7022 162° South 100 115 4,000 -52 Level Cleveland Center
Wed 04:32:32 PM 42.7372 -83.6928 161° South 86 99 3,900 -259 Descending Cleveland Center
Wed 04:33:33 PM 42.7097 -83.7000 191° South 103 119 3,500 -443 Descending Cleveland Center
Wed 04:34:34 PM 42.6842 -83.7214 212° Southwest 118 136 3,000 -295 Descending Cleveland Center
Wed 04:35:35 PM 42.6628 -83.7428 216° Southwest 103 119 2,900 -47 Descending Cleveland Center
Wed 04:36:42 PM 42.6397 -83.7472 188° South 106 122 2,900 49 Level Cleveland Center
Wed 04:37:37 PM 42.6511 -83.7169 63° Northeast 104 120 3,000 -52 Climbing Cleveland Center
Wed 04:38:38 PM 42.6603 -83.6778 72° East 113 130 2,800 -131 Descending Cleveland Center
Wed 04:40:40 PM 42.6603 -83.6042 90° East 88 101 2,600 -33 Descending Cleveland Center
Wed 04:41:41 PM 42.6611 -83.5706 88° East 92 106 2,700  Climbing Cleveland Center
Wed 04:42:42 PM 42.6619 -83.5339 88° East 90 104 2,600 -375 Descending Cleveland Center
Wed 04:43:49 PM 42.6653 -83.4917 84° East 103 119 1,900 -563 Descending Cleveland Center
Wed 04:44:50 PM 42.6619 -83.4547 97° East 102 117 1,400 -492 Descending Cleveland Center
Wed 04:46:00 PM 42.6510 -83.4197 113° Southeast  Level FlightAware Approximate
Wed 04:53:00 PM 42.6500 -83.4167 North  Level FlightAware Approximate
Wed 04:54:00 PM 42.6656 -83.4205 North  Level Estimated

Login

Don't have an account? Register now (free) for customized features, flight alerts, and more!